createdAt,value
2022-12-12T00:02:45.215Z,23.95
2022-12-12T00:05:32.502Z,25.68
2022-12-12T00:08:19.818Z,26.27
2022-12-12T00:11:08.212Z,24.37
2022-12-12T00:13:56.637Z,25.97
2022-12-12T00:16:43.843Z,24.47
2022-12-12T00:19:31.363Z,23.45
2022-12-12T00:22:18.856Z,27.00
2022-12-12T00:25:06.798Z,24.70
2022-12-12T00:27:53.906Z,24.55
2022-12-12T00:30:41.180Z,24.65
2022-12-12T00:33:28.809Z,24.65
2022-12-12T00:36:17.934Z,25.57
2022-12-12T00:39:05.233Z,24.77
2022-12-12T00:41:54.540Z,25.30
2022-12-12T00:44:42.096Z,24.35
2022-12-12T00:47:29.691Z,26.40
2022-12-12T00:50:17.034Z,25.68
2022-12-12T00:53:04.702Z,25.43
2022-12-12T00:55:57.739Z,26.57
2022-12-12T00:58:45.440Z,26.00
2022-12-12T01:01:34.280Z,24.82
2022-12-12T01:04:21.430Z,26.30
2022-12-12T01:07:09.161Z,26.50
2022-12-12T01:09:56.714Z,25.95
2022-12-12T01:12:44.124Z,25.08
2022-12-12T01:15:31.791Z,24.57
2022-12-12T01:18:19.593Z,24.87
2022-12-12T01:21:10.075Z,24.80
2022-12-12T01:23:57.318Z,24.82
2022-12-12T01:26:44.657Z,25.02
2022-12-12T01:29:33.573Z,26.27
2022-12-12T01:32:20.776Z,24.70
2022-12-12T01:35:08.394Z,24.43
2022-12-12T01:37:55.645Z,25.23
2022-12-12T01:40:42.907Z,25.20
2022-12-12T01:43:30.986Z,22.60
2022-12-12T01:46:33.336Z,24.55
2022-12-12T01:49:24.966Z,26.07
2022-12-12T01:52:15.997Z,23.95
2022-12-12T01:55:06.320Z,23.52
2022-12-12T01:57:55.421Z,25.12
2022-12-12T02:00:43.868Z,23.52
2022-12-12T02:03:30.982Z,22.45
2022-12-12T02:06:21.384Z,22.85
2022-12-12T02:09:12.494Z,22.82
2022-12-12T02:11:59.787Z,23.35
2022-12-12T02:14:50.327Z,23.47
2022-12-12T02:18:01.014Z,22.73
2022-12-12T02:21:01.294Z,24.63
2022-12-12T02:24:08.185Z,23.65
2022-12-12T02:27:31.437Z,23.10
2022-12-12T02:30:22.244Z,24.18
2022-12-12T02:33:12.561Z,23.50
2022-12-12T02:36:05.338Z,24.52
2022-12-12T02:38:55.697Z,22.15
2022-12-12T02:41:46.135Z,24.35
2022-12-12T02:44:51.489Z,23.22
2022-12-12T02:47:41.602Z,23.32
2022-12-12T02:50:31.021Z,23.38
2022-12-12T02:53:20.191Z,22.13
2022-12-12T02:56:10.384Z,22.73
2022-12-12T02:58:58.294Z,23.15
2022-12-12T03:01:48.905Z,24.65
2022-12-12T03:05:14.070Z,23.40
2022-12-12T03:08:04.395Z,22.30
2022-12-12T03:11:06.868Z,23.77
2022-12-12T03:14:15.072Z,23.02
2022-12-12T03:17:20.603Z,23.15
2022-12-12T03:20:22.899Z,24.23
2022-12-12T03:23:19.098Z,22.10
2022-12-12T03:26:27.622Z,23.57
2022-12-12T03:29:24.202Z,23.60
2022-12-12T03:32:14.431Z,24.25
2022-12-12T03:35:04.912Z,23.87
2022-12-12T03:37:58.101Z,25.32
2022-12-12T03:40:58.242Z,24.27
2022-12-12T03:43:48.744Z,25.08
2022-12-12T03:46:44.904Z,25.30
2022-12-12T03:49:38.177Z,23.98
2022-12-12T03:52:34.836Z,24.57
2022-12-12T03:55:31.418Z,24.32
2022-12-12T03:58:27.545Z,23.15
2022-12-12T04:01:16.673Z,25.05
2022-12-12T04:04:22.314Z,25.02
2022-12-12T04:07:21.393Z,23.00
2022-12-12T04:10:27.975Z,24.67
2022-12-12T04:13:38.177Z,18.95
2022-12-12T04:16:28.539Z,24.63
2022-12-12T04:19:23.437Z,24.67
2022-12-12T04:22:30.409Z,24.05
2022-12-12T04:25:26.380Z,25.35
2022-12-12T04:28:13.738Z,25.88
2022-12-12T04:31:04.067Z,23.47
2022-12-12T04:33:53.595Z,24.12
2022-12-12T04:36:41.878Z,24.40
2022-12-12T04:39:31.230Z,25.17
2022-12-12T04:42:22.213Z,24.82
2022-12-12T04:45:13.034Z,24.40
2022-12-12T04:48:02.710Z,24.12
2022-12-12T04:50:53.528Z,23.38
2022-12-12T04:53:44.005Z,22.85
2022-12-12T04:56:33.728Z,25.90
2022-12-12T04:59:21.350Z,36.85
2022-12-12T05:02:26.266Z,33.40
2022-12-12T05:05:22.954Z,33.92
2022-12-12T05:08:19.481Z,25.57
2022-12-12T05:11:08.098Z,24.45
2022-12-12T05:13:55.589Z,22.55
2022-12-12T05:16:45.840Z,23.20
2022-12-12T05:19:33.210Z,25.35
2022-12-12T05:22:20.517Z,24.07
2022-12-12T05:25:08.580Z,24.65
2022-12-12T05:27:55.737Z,24.37
2022-12-12T05:30:43.187Z,26.87
2022-12-12T05:33:30.697Z,23.83
2022-12-12T05:36:18.928Z,26.70
2022-12-12T05:39:06.370Z,26.57
2022-12-12T05:41:53.670Z,25.75
2022-12-12T05:44:40.940Z,25.75
2022-12-12T05:47:29.950Z,25.35
2022-12-12T05:50:18.779Z,26.35
2022-12-12T05:53:07.411Z,25.30
2022-12-12T05:55:54.871Z,25.15
2022-12-12T05:58:42.885Z,24.57
2022-12-12T06:01:30.302Z,25.40
2022-12-12T06:04:17.932Z,27.55
2022-12-12T06:07:05.098Z,26.70
2022-12-12T06:09:52.851Z,26.07
2022-12-12T06:12:40.098Z,25.97
2022-12-12T06:15:27.460Z,28.83
2022-12-12T06:18:15.092Z,26.77
2022-12-12T06:21:06.654Z,28.07
2022-12-12T06:23:54.049Z,30.68
2022-12-12T06:26:41.394Z,26.17
2022-12-12T06:29:28.924Z,26.30
2022-12-12T06:32:16.378Z,27.60
2022-12-12T06:35:03.786Z,26.97
2022-12-12T06:37:51.249Z,27.87
2022-12-12T06:40:41.023Z,27.05
2022-12-12T06:43:28.239Z,24.87
2022-12-12T06:46:18.651Z,26.77
2022-12-12T06:49:07.566Z,26.27
2022-12-12T06:51:54.723Z,28.47
2022-12-12T06:54:42.226Z,26.37
2022-12-12T06:57:29.492Z,26.02
2022-12-12T07:00:17.327Z,27.20
2022-12-12T07:03:04.619Z,27.93
2022-12-12T07:05:51.799Z,28.60
2022-12-12T07:08:39.587Z,27.58
2022-12-12T07:11:28.535Z,25.25
2022-12-12T07:14:15.805Z,27.48
2022-12-12T07:17:03.018Z,26.62
2022-12-12T07:19:50.290Z,28.60
2022-12-12T07:22:37.768Z,27.13
2022-12-12T07:25:25.145Z,27.67
2022-12-12T07:28:14.321Z,27.30
2022-12-12T07:31:03.371Z,26.77
2022-12-12T07:33:51.942Z,28.47
2022-12-12T07:36:39.209Z,27.25
2022-12-12T07:39:26.527Z,26.70
2022-12-12T07:42:13.817Z,28.50
2022-12-12T07:45:01.273Z,25.80
2022-12-12T07:47:48.827Z,25.40
2022-12-12T07:50:36.069Z,26.95
2022-12-12T07:53:23.315Z,24.85
2022-12-12T07:56:12.993Z,25.40
2022-12-12T07:59:00.575Z,26.10
2022-12-12T08:01:48.018Z,24.63
2022-12-12T08:04:35.352Z,26.97
2022-12-12T08:07:22.925Z,26.95
2022-12-12T08:10:10.636Z,25.05
2022-12-12T08:12:58.114Z,26.73
2022-12-12T08:15:45.418Z,25.05
2022-12-12T08:18:32.751Z,26.77
2022-12-12T08:21:25.241Z,24.92
2022-12-12T08:24:12.923Z,26.12
2022-12-12T08:27:00.503Z,25.95
2022-12-12T08:29:47.875Z,28.65
2022-12-12T08:32:35.451Z,29.32
2022-12-12T08:35:25.459Z,28.77
2022-12-12T08:38:14.887Z,28.62
2022-12-12T08:41:03.589Z,27.67
2022-12-12T08:43:51.724Z,29.60
2022-12-12T08:46:39.906Z,30.55
2022-12-12T08:49:27.084Z,27.52
2022-12-12T08:52:14.307Z,27.02
2022-12-12T08:55:01.799Z,28.40
2022-12-12T08:57:49.187Z,27.87
2022-12-12T09:00:37.071Z,28.00
2022-12-12T09:03:29.227Z,27.93
2022-12-12T09:06:14.136Z,30.95
2022-12-12T09:09:01.417Z,34.50
2022-12-12T09:11:50.670Z,33.70
2022-12-12T09:14:38.166Z,35.65
2022-12-12T09:17:26.566Z,35.13
2022-12-12T09:20:14.597Z,34.48
2022-12-12T09:23:02.084Z,34.08
2022-12-12T09:25:50.553Z,35.40
2022-12-12T09:28:39.292Z,34.95
2022-12-12T09:31:26.744Z,37.42
2022-12-12T09:34:14.276Z,37.33
2022-12-12T09:37:02.516Z,34.98
2022-12-12T09:39:54.385Z,32.83
2022-12-12T09:42:45.058Z,33.13
2022-12-12T09:45:35.589Z,35.43
2022-12-12T09:48:38.502Z,35.38
2022-12-12T09:51:25.749Z,31.90
2022-12-12T09:54:16.179Z,31.62
2022-12-12T09:57:25.979Z,32.03
2022-12-12T10:00:15.769Z,30.68
2022-12-12T10:03:11.999Z,31.65
2022-12-12T10:06:28.653Z,31.23
2022-12-12T10:09:09.000Z,31.73
2022-12-12T10:12:00.036Z,30.88
2022-12-12T10:15:01.903Z,31.37
2022-12-12T10:17:50.561Z,29.72
2022-12-12T10:20:43.886Z,30.82
2022-12-12T10:23:53.554Z,29.98
2022-12-12T10:26:43.096Z,29.95
2022-12-12T10:29:30.432Z,29.82
2022-12-12T10:32:36.156Z,30.80
2022-12-12T10:35:49.527Z,31.30
2022-12-12T10:38:54.828Z,29.98
2022-12-12T10:42:00.635Z,29.65
2022-12-12T10:45:12.444Z,28.65
2022-12-12T10:48:00.087Z,26.45
2022-12-12T10:50:50.565Z,26.45
2022-12-12T10:53:38.995Z,26.65
2022-12-12T10:56:32.009Z,28.55
2022-12-12T10:59:40.408Z,26.85
2022-12-12T11:02:38.243Z,27.90
2022-12-12T11:05:30.971Z,26.70
2022-12-12T11:08:21.965Z,25.40
2022-12-12T11:11:12.515Z,28.10
2022-12-12T11:14:02.539Z,24.95
2022-12-12T11:16:49.708Z,24.87
2022-12-12T11:19:40.917Z,24.87
2022-12-12T11:22:30.352Z,23.22
2022-12-12T11:25:26.861Z,22.52
2022-12-12T11:28:17.466Z,24.43
2022-12-12T11:31:07.559Z,24.20
2022-12-12T11:33:58.333Z,27.90
2022-12-12T11:36:45.651Z,28.38
2022-12-12T11:39:35.863Z,28.05
2022-12-12T11:42:29.138Z,26.70
2022-12-12T11:45:19.679Z,28.55
2022-12-12T11:48:15.795Z,30.23
2022-12-12T11:51:03.712Z,28.85
2022-12-12T11:53:50.977Z,27.02
2022-12-12T11:56:57.601Z,27.37
2022-12-12T11:59:56.691Z,28.07
2022-12-12T12:03:09.632Z,26.77
2022-12-12T12:06:08.591Z,27.80
2022-12-12T12:09:04.943Z,27.05
2022-12-12T12:12:17.401Z,28.07
2022-12-12T12:15:22.960Z,28.20
2022-12-12T12:18:26.585Z,28.20
2022-12-12T12:21:19.499Z,30.40
2022-12-12T12:24:09.991Z,28.05
2022-12-12T12:27:17.062Z,28.57
2022-12-12T12:30:25.123Z,28.10
2022-12-12T12:33:27.632Z,27.35
2022-12-12T12:36:23.529Z,28.30
2022-12-12T12:39:20.104Z,30.17
2022-12-12T12:42:13.506Z,29.42
2022-12-12T12:45:15.616Z,28.52
2022-12-12T12:48:21.299Z,30.55
2022-12-12T12:51:29.703Z,30.25
2022-12-12T12:54:25.900Z,29.30
2022-12-12T12:57:22.134Z,28.45
2022-12-12T13:00:24.930Z,28.75
2022-12-12T13:03:21.250Z,29.92
2022-12-12T13:06:11.508Z,31.75
2022-12-12T13:09:14.248Z,32.53
2022-12-12T13:12:19.629Z,30.60
2022-12-12T13:15:09.971Z,30.62
2022-12-12T13:18:04.462Z,29.98
2022-12-12T13:21:00.388Z,30.48
2022-12-12T13:23:53.662Z,28.62
2022-12-12T13:27:08.656Z,29.10
2022-12-12T13:30:01.666Z,30.12
2022-12-12T13:32:58.135Z,28.70
2022-12-12T13:35:51.673Z,29.05
2022-12-12T13:38:40.285Z,29.10
2022-12-12T13:41:28.565Z,27.95
2022-12-12T13:44:27.804Z,30.70
2022-12-12T13:47:27.035Z,28.23
2022-12-12T13:50:22.858Z,27.20
2022-12-12T13:53:13.596Z,26.60
2022-12-12T13:56:20.607Z,26.97
2022-12-12T13:59:29.266Z,26.23
2022-12-12T14:02:28.835Z,26.87
2022-12-12T14:05:28.219Z,25.90
2022-12-12T14:08:18.533Z,24.45
2022-12-12T14:11:11.920Z,24.40
2022-12-12T14:14:10.359Z,24.30
2022-12-12T14:16:58.074Z,23.57
2022-12-12T14:19:45.788Z,24.43
2022-12-12T14:22:42.095Z,24.37
2022-12-12T14:25:40.928Z,22.82
2022-12-12T14:28:31.598Z,22.13
2022-12-12T14:31:18.941Z,21.00
2022-12-12T14:34:09.512Z,22.32
2022-12-12T14:37:02.785Z,22.65
2022-12-12T14:39:59.082Z,22.30
2022-12-12T14:43:19.939Z,16.80
2022-12-12T14:45:55.874Z,20.75
2022-12-12T14:48:43.987Z,19.73
2022-12-12T14:51:36.958Z,22.75
2022-12-12T14:54:25.714Z,21.80
2022-12-12T14:57:16.434Z,20.50
2022-12-12T15:00:04.843Z,21.17
2022-12-12T15:02:53.998Z,19.57
2022-12-12T15:05:41.516Z,20.15
2022-12-12T15:08:28.806Z,21.60
2022-12-12T15:11:17.542Z,20.20
2022-12-12T15:14:05.724Z,19.02
2022-12-12T15:17:05.287Z,21.30
2022-12-12T15:20:11.264Z,21.93
2022-12-12T15:23:04.171Z,21.12
2022-12-12T15:25:56.079Z,21.27
2022-12-12T15:28:46.614Z,22.98
2022-12-12T15:31:33.956Z,22.17
2022-12-12T15:34:36.386Z,23.45
2022-12-12T15:37:26.946Z,21.87
2022-12-12T15:40:17.674Z,22.15
2022-12-12T15:43:14.553Z,23.57
2022-12-12T15:46:09.282Z,24.15
2022-12-12T15:48:56.542Z,24.98
2022-12-12T15:51:43.988Z,25.23
2022-12-12T15:54:31.380Z,23.50
2022-12-12T15:57:25.277Z,26.23
2022-12-12T16:00:32.052Z,25.60
2022-12-12T16:03:22.527Z,24.00
2022-12-12T16:06:18.433Z,25.97
2022-12-12T16:09:24.266Z,18.10
2022-12-12T16:12:11.662Z,23.50
2022-12-12T16:15:02.092Z,25.55
2022-12-12T16:18:01.162Z,24.27
2022-12-12T16:20:57.040Z,25.05
2022-12-12T16:23:44.433Z,26.23
2022-12-12T16:26:31.993Z,26.02
2022-12-12T16:29:19.218Z,26.62
2022-12-12T16:32:07.011Z,29.70
2022-12-12T16:34:54.901Z,30.08
2022-12-12T16:37:42.393Z,25.50
2022-12-12T16:40:29.395Z,25.20
2022-12-12T16:43:20.168Z,27.70
2022-12-12T16:46:09.409Z,27.20
2022-12-12T16:48:58.250Z,26.90
2022-12-12T16:51:45.293Z,27.27
2022-12-12T16:54:32.777Z,27.58
2022-12-12T16:57:20.056Z,28.92
2022-12-12T17:00:08.322Z,30.15
2022-12-12T17:02:55.673Z,29.92
2022-12-12T17:05:44.025Z,36.85
2022-12-12T17:08:31.414Z,39.80
2022-12-12T17:11:19.224Z,31.87
2022-12-12T17:14:06.674Z,30.45
2022-12-12T17:16:54.732Z,30.10
2022-12-12T17:19:42.409Z,31.17
2022-12-12T17:22:30.296Z,31.20
2022-12-12T17:25:17.740Z,28.45
2022-12-12T17:28:06.984Z,27.35
2022-12-12T17:30:54.709Z,28.77
2022-12-12T17:33:49.849Z,27.07
2022-12-12T17:36:31.168Z,26.20
2022-12-12T17:39:19.274Z,28.50
2022-12-12T17:42:06.638Z,29.18
2022-12-12T17:44:54.398Z,28.60
2022-12-12T17:47:41.646Z,28.05
2022-12-12T17:50:30.573Z,27.80
2022-12-12T17:53:17.788Z,26.85
2022-12-12T17:56:20.753Z,26.02
2022-12-12T17:59:09.069Z,35.60
2022-12-12T18:01:56.735Z,36.65
2022-12-12T18:04:44.302Z,36.33
2022-12-12T18:07:31.908Z,42.55
2022-12-12T18:10:19.116Z,54.18
2022-12-12T18:13:06.587Z,45.85
2022-12-12T18:15:58.392Z,40.48
2022-12-12T18:18:45.941Z,32.42
2022-12-12T18:24:24.840Z,30.12
2022-12-12T18:27:12.490Z,29.87
2022-12-12T18:30:00.217Z,29.27
2022-12-12T18:32:47.647Z,27.85
2022-12-12T18:35:34.787Z,29.85
2022-12-12T18:38:22.249Z,29.90
2022-12-12T18:41:10.465Z,29.98
2022-12-12T18:43:58.020Z,28.55
2022-12-12T18:46:45.823Z,26.73
2022-12-12T18:49:33.311Z,26.57
2022-12-12T18:52:20.805Z,28.73
2022-12-12T18:55:09.118Z,29.27
2022-12-12T18:57:56.898Z,30.12
2022-12-12T19:00:44.549Z,29.65
2022-12-12T19:03:31.689Z,27.67
2022-12-12T19:06:24.000Z,29.50
2022-12-12T19:09:17.113Z,28.60
2022-12-12T19:12:05.727Z,28.45
2022-12-12T19:15:15.907Z,27.37
2022-12-12T19:17:42.893Z,27.77
2022-12-12T19:20:30.601Z,28.17
2022-12-12T19:23:18.068Z,28.80
2022-12-12T19:26:14.307Z,28.75
2022-12-12T19:29:04.507Z,30.02
2022-12-12T19:31:58.368Z,28.85
2022-12-12T19:34:42.244Z,28.73
2022-12-12T19:37:29.759Z,28.05
2022-12-12T19:40:17.726Z,28.10
2022-12-12T19:43:05.599Z,27.52
2022-12-12T19:45:56.044Z,29.12
2022-12-12T19:48:44.260Z,29.20
2022-12-12T19:51:34.555Z,26.62
2022-12-12T19:54:22.528Z,27.82
2022-12-12T19:57:09.891Z,25.68
2022-12-12T19:59:57.227Z,25.10
2022-12-12T20:02:44.583Z,23.47
2022-12-12T20:05:31.703Z,24.23
2022-12-12T20:08:18.968Z,24.95
2022-12-12T20:11:11.911Z,25.05
2022-12-12T20:14:00.904Z,25.45
2022-12-12T20:16:49.226Z,27.40
2022-12-12T20:19:36.558Z,24.92
2022-12-12T20:22:31.673Z,25.48
2022-12-12T20:25:19.501Z,24.50
2022-12-12T20:28:06.707Z,25.23
2022-12-12T20:31:11.873Z,25.75
2022-12-12T20:34:00.288Z,26.07
2022-12-12T20:36:48.044Z,28.20
2022-12-12T20:39:40.721Z,27.27
2022-12-12T20:42:33.370Z,26.73
2022-12-12T20:45:26.143Z,23.52
2022-12-12T20:48:15.189Z,24.15
2022-12-12T20:51:03.783Z,22.75
2022-12-12T20:53:55.128Z,25.75
2022-12-12T20:56:49.285Z,22.98
2022-12-12T20:59:43.300Z,23.30
2022-12-12T21:02:33.446Z,24.07
2022-12-12T21:05:21.057Z,23.70
2022-12-12T21:08:08.721Z,24.85
2022-12-12T21:10:56.172Z,26.23
2022-12-12T21:13:43.894Z,25.80
2022-12-12T21:16:34.602Z,26.50
2022-12-12T21:19:24.405Z,22.98
2022-12-12T21:22:11.849Z,23.60
2022-12-12T21:24:59.228Z,21.95
2022-12-12T21:27:46.694Z,21.87
2022-12-12T21:30:33.841Z,23.35
2022-12-12T21:33:22.807Z,22.22
2022-12-12T21:36:12.223Z,21.97
2022-12-12T21:39:01.058Z,20.77
2022-12-12T21:41:48.395Z,21.33
2022-12-12T21:44:40.018Z,21.90
2022-12-12T21:47:25.377Z,22.00
2022-12-12T21:50:12.723Z,20.75
2022-12-12T21:53:18.254Z,21.93
2022-12-12T21:56:07.229Z,20.23
2022-12-12T21:58:54.541Z,19.55
2022-12-12T22:01:42.455Z,19.37
2022-12-12T22:04:29.685Z,19.15
2022-12-12T22:07:18.994Z,23.00
2022-12-12T22:10:10.981Z,25.52
2022-12-12T22:12:57.567Z,21.80
2022-12-12T22:15:44.848Z,21.60
2022-12-12T22:18:32.093Z,22.98
2022-12-12T22:21:23.794Z,23.50
2022-12-12T22:24:11.292Z,21.65
2022-12-12T22:26:59.228Z,23.50
2022-12-12T22:29:46.765Z,23.22
2022-12-12T22:32:34.000Z,21.45
2022-12-12T22:35:27.529Z,20.95
2022-12-12T22:38:14.950Z,23.00
2022-12-12T22:41:02.607Z,23.00
2022-12-12T22:43:54.683Z,25.85
2022-12-12T22:46:44.070Z,24.43
2022-12-12T22:49:31.124Z,20.72
2022-12-12T22:52:19.414Z,20.17
2022-12-12T22:55:07.113Z,21.12
2022-12-12T22:57:55.187Z,21.45
2022-12-12T23:00:42.482Z,23.12
2022-12-12T23:03:31.326Z,21.77
2022-12-12T23:06:28.105Z,20.97
2022-12-12T23:09:18.452Z,20.75
2022-12-12T23:12:05.465Z,23.22
2022-12-12T23:14:54.706Z,22.37
2022-12-12T23:17:41.901Z,20.68
2022-12-12T23:20:29.494Z,23.32
2022-12-12T23:23:17.042Z,21.85
2022-12-12T23:26:08.516Z,21.93
2022-12-12T23:28:56.240Z,21.80
2022-12-12T23:31:43.657Z,23.70
2022-12-12T23:34:31.409Z,24.37
2022-12-12T23:37:18.845Z,21.20
2022-12-12T23:40:07.226Z,22.55
2022-12-12T23:42:54.765Z,21.97
2022-12-12T23:45:42.362Z,22.22
2022-12-12T23:48:31.108Z,21.55
2022-12-12T23:51:18.698Z,20.90
2022-12-12T23:54:08.660Z,22.40
2022-12-12T23:56:56.012Z,20.55
2022-12-12T23:59:43.938Z,21.30
